sensor_id;sensor_type;location;lat;lon;timestamp;pressure;altitude;pressure_sealevel;temperature;humidity
14293;BME280;62290;59.420;17.842;2023-08-06T00:00:26;100953.09;;;24.18;45.09
14293;BME280;62290;59.420;17.842;2023-08-06T00:02:54;100944.16;;;24.18;44.96
14293;BME280;62290;59.420;17.842;2023-08-06T00:05:22;100934.19;;;24.09;45.08
14293;BME280;62290;59.420;17.842;2023-08-06T00:07:50;100947.13;;;24.15;44.83
14293;BME280;62290;59.420;17.842;2023-08-06T00:10:19;100948.13;;;24.14;45.19
14293;BME280;62290;59.420;17.842;2023-08-06T00:12:48;100948.97;;;24.14;44.97
14293;BME280;62290;59.420;17.842;2023-08-06T00:15:16;100947.38;;;24.12;45.23
14293;BME280;62290;59.420;17.842;2023-08-06T00:17:44;100944.69;;;24.12;45.04
14293;BME280;62290;59.420;17.842;2023-08-06T00:20:12;100938.59;;;24.10;45.05
14293;BME280;62290;59.420;17.842;2023-08-06T00:22:41;100950.34;;;24.09;45.00
14293;BME280;62290;59.420;17.842;2023-08-06T00:25:09;100948.75;;;24.06;45.26
14293;BME280;62290;59.420;17.842;2023-08-06T00:27:37;100954.88;;;24.08;45.08
14293;BME280;62290;59.420;17.842;2023-08-06T00:30:07;100946.88;;;24.07;45.35
14293;BME280;62290;59.420;17.842;2023-08-06T00:32:35;100950.59;;;24.06;45.09
14293;BME280;62290;59.420;17.842;2023-08-06T00:35:03;100939.81;;;24.06;44.99
14293;BME280;62290;59.420;17.842;2023-08-06T00:37:31;100935.66;;;24.02;45.15
14293;BME280;62290;59.420;17.842;2023-08-06T00:39:59;100947.19;;;24.04;45.19
14293;BME280;62290;59.420;17.842;2023-08-06T00:42:27;100944.59;;;24.02;44.97
14293;BME280;62290;59.420;17.842;2023-08-06T00:44:55;100942.03;;;24.01;45.01
14293;BME280;62290;59.420;17.842;2023-08-06T00:47:25;100941.28;;;23.98;45.04
14293;BME280;62290;59.420;17.842;2023-08-06T00:49:54;100942.91;;;24.01;44.91
14293;BME280;62290;59.420;17.842;2023-08-06T00:52:22;100941.19;;;24.00;45.00
14293;BME280;62290;59.420;17.842;2023-08-06T00:54:50;100931.53;;;23.98;45.05
14293;BME280;62290;59.420;17.842;2023-08-06T00:57:20;100938.59;;;23.98;44.88
14293;BME280;62290;59.420;17.842;2023-08-06T00:59:49;100938.59;;;23.98;44.89
14293;BME280;62290;59.420;17.842;2023-08-06T01:02:18;100944.13;;;23.97;44.97
14293;BME280;62290;59.420;17.842;2023-08-06T01:04:47;100943.16;;;23.98;45.01
14293;BME280;62290;59.420;17.842;2023-08-06T01:07:24;100942.31;;;23.98;44.76
14293;BME280;62290;59.420;17.842;2023-08-06T01:10:14;100936.47;;;23.92;45.06
14293;BME280;62290;59.420;17.842;2023-08-06T01:12:51;100946.22;;;23.93;44.87
14293;BME280;62290;59.420;17.842;2023-08-06T01:15:28;100944.53;;;23.92;44.94
14293;BME280;62290;59.420;17.842;2023-08-06T01:17:57;100940.38;;;23.88;44.83
14293;BME280;62290;59.420;17.842;2023-08-06T01:20:29;100937.44;;;23.91;44.70
14293;BME280;62290;59.420;17.842;2023-08-06T01:22:57;100943.81;;;23.90;44.92
14293;BME280;62290;59.420;17.842;2023-08-06T01:25:29;100939.41;;;23.89;44.72
14293;BME280;62290;59.420;17.842;2023-08-06T01:28:06;100946.63;;;23.89;44.80
14293;BME280;62290;59.420;17.842;2023-08-06T01:30:39;100937.84;;;23.87;44.86
14293;BME280;62290;59.420;17.842;2023-08-06T01:33:14;100944.31;;;23.84;44.81
14293;BME280;62290;59.420;17.842;2023-08-06T01:35:46;100939.81;;;23.85;44.75
14293;BME280;62290;59.420;17.842;2023-08-06T01:38:16;100927.81;;;23.78;44.89
14293;BME280;62290;59.420;17.842;2023-08-06T01:40:44;100930.16;;;23.82;44.81
14293;BME280;62290;59.420;17.842;2023-08-06T01:43:12;100934.69;;;23.82;44.84
14293;BME280;62290;59.420;17.842;2023-08-06T01:45:40;100946.31;;;23.82;44.90
14293;BME280;62290;59.420;17.842;2023-08-06T01:48:08;100932.97;;;23.81;44.94
14293;BME280;62290;59.420;17.842;2023-08-06T01:50:36;100927.72;;;23.79;44.80
14293;BME280;62290;59.420;17.842;2023-08-06T01:53:06;100935.06;;;23.77;44.73
14293;BME280;62290;59.420;17.842;2023-08-06T01:55:34;100929.69;;;23.77;44.83
14293;BME280;62290;59.420;17.842;2023-08-06T01:58:02;100924.41;;;23.76;44.80
14293;BME280;62290;59.420;17.842;2023-08-06T02:00:30;100932.63;;;23.74;44.96
14293;BME280;62290;59.420;17.842;2023-08-06T02:02:58;100929.09;;;23.74;44.85
14293;BME280;62290;59.420;17.842;2023-08-06T02:05:26;100933.59;;;23.73;44.74
14293;BME280;62290;59.420;17.842;2023-08-06T02:07:54;100930.91;;;23.73;44.68
14293;BME280;62290;59.420;17.842;2023-08-06T02:10:23;100930.91;;;23.73;44.69
14293;BME280;62290;59.420;17.842;2023-08-06T02:12:51;100929.22;;;23.72;44.75
14293;BME280;62290;59.420;17.842;2023-08-06T02:15:19;100935.59;;;23.71;44.80
14293;BME280;62290;59.420;17.842;2023-08-06T02:17:47;100935.59;;;23.71;44.57
14293;BME280;62290;59.420;17.842;2023-08-06T02:20:15;100932.19;;;23.69;44.58
14293;BME280;62290;59.420;17.842;2023-08-06T02:22:43;100924.97;;;23.70;44.64
14293;BME280;62290;59.420;17.842;2023-08-06T02:25:11;100923.34;;;23.67;44.47
14293;BME280;62290;59.420;17.842;2023-08-06T02:27:43;100929.75;;;23.66;44.56
14293;BME280;62290;59.420;17.842;2023-08-06T02:30:11;100935.84;;;23.68;44.46
14293;BME280;62290;59.420;17.842;2023-08-06T02:32:39;100932.28;;;23.68;44.63
14293;BME280;62290;59.420;17.842;2023-08-06T02:35:07;100934.13;;;23.67;44.64
14293;BME280;62290;59.420;17.842;2023-08-06T02:37:36;100935.97;;;23.67;44.55
14293;BME280;62290;59.420;17.842;2023-08-06T02:40:05;100929.84;;;23.65;44.45
14293;BME280;62290;59.420;17.842;2023-08-06T02:42:33;100931.72;;;23.64;44.49
14293;BME280;62290;59.420;17.842;2023-08-06T02:45:04;100926.31;;;23.64;44.63
14293;BME280;62290;59.420;17.842;2023-08-06T02:47:32;100927.44;;;23.62;44.46
14293;BME280;62290;59.420;17.842;2023-08-06T02:50:00;100929.28;;;23.61;44.35
14293;BME280;62290;59.420;17.842;2023-08-06T02:52:29;100927.31;;;23.63;44.45
14293;BME280;62290;59.420;17.842;2023-08-06T02:54:57;100932.69;;;23.63;44.44
14293;BME280;62290;59.420;17.842;2023-08-06T02:57:28;100931.97;;;23.61;44.44
14293;BME280;62290;59.420;17.842;2023-08-06T02:59:56;100931.09;;;23.61;44.64
14293;BME280;62290;59.420;17.842;2023-08-06T03:02:26;100928.41;;;23.61;44.58
14293;BME280;62290;59.420;17.842;2023-08-06T03:05:14;100934.03;;;23.58;44.44
14293;BME280;62290;59.420;17.842;2023-08-06T03:07:45;100946.53;;;23.59;44.34
14293;BME280;62290;59.420;17.842;2023-08-06T03:10:19;100946.63;;;23.57;44.51
14293;BME280;62290;59.420;17.842;2023-08-06T03:12:50;100947.75;;;23.55;44.41
14293;BME280;62290;59.420;17.842;2023-08-06T03:15:19;100959.38;;;23.55;44.58
14293;BME280;62290;59.420;17.842;2023-08-06T03:17:49;100962.91;;;23.56;44.32
14293;BME280;62290;59.420;17.842;2023-08-06T03:20:20;100969.28;;;23.55;44.61
14293;BME280;62290;59.420;17.842;2023-08-06T03:22:49;100972.81;;;23.55;44.56
14293;BME280;62290;59.420;17.842;2023-08-06T03:25:17;100964.88;;;23.54;44.55
14293;BME280;62290;59.420;17.842;2023-08-06T03:27:48;100983.72;;;23.54;44.51
14293;BME280;62290;59.420;17.842;2023-08-06T03:30:18;100987.38;;;23.53;44.62
14293;BME280;62290;59.420;17.842;2023-08-06T03:32:48;100983.81;;;23.52;44.37
14293;BME280;62290;59.420;17.842;2023-08-06T03:35:19;100977.47;;;23.53;44.52
14293;BME280;62290;59.420;17.842;2023-08-06T03:37:48;100972.97;;;23.54;44.58
14293;BME280;62290;59.420;17.842;2023-08-06T03:40:16;100962.44;;;23.51;44.58
14293;BME280;62290;59.420;17.842;2023-08-06T03:42:45;100965.25;;;23.49;44.44
14293;BME280;62290;59.420;17.842;2023-08-06T03:45:13;100971.13;;;23.54;44.43
14293;BME280;62290;59.420;17.842;2023-08-06T03:47:42;100973.81;;;23.54;44.58
14293;BME280;62290;59.420;17.842;2023-08-06T03:50:12;100977.22;;;23.56;44.58
14293;BME280;62290;59.420;17.842;2023-08-06T03:52:40;100974.53;;;23.56;44.46
14293;BME280;62290;59.420;17.842;2023-08-06T03:55:10;100970.75;;;23.59;44.57
14293;BME280;62290;59.420;17.842;2023-08-06T03:57:38;100975.00;;;23.61;44.54
14293;BME280;62290;59.420;17.842;2023-08-06T04:00:07;100972.06;;;23.64;44.59
14293;BME280;62290;59.420;17.842;2023-08-06T04:02:41;100963.72;;;23.67;44.51
14293;BME280;62290;59.420;17.842;2023-08-06T04:05:13;100965.31;;;23.70;44.44
14293;BME280;62290;59.420;17.842;2023-08-06T04:07:42;100962.34;;;23.73;44.30
14293;BME280;62290;59.420;17.842;2023-08-06T04:10:10;100966.50;;;23.77;44.35
14293;BME280;62290;59.420;17.842;2023-08-06T04:12:38;100958.19;;;23.80;44.47
14293;BME280;62290;59.420;17.842;2023-08-06T04:15:06;100960.72;;;23.81;44.43
14293;BME280;62290;59.420;17.842;2023-08-06T04:17:35;100972.97;;;23.85;44.27
14293;BME280;62290;59.420;17.842;2023-08-06T04:20:04;100968.31;;;23.87;44.37
14293;BME280;62290;59.420;17.842;2023-08-06T04:22:33;100958.25;;;23.89;44.63
14293;BME280;62290;59.420;17.842;2023-08-06T04:25:02;100942.81;;;23.91;44.52
14293;BME280;62290;59.420;17.842;2023-08-06T04:27:30;100941.69;;;23.94;44.50
14293;BME280;62290;59.420;17.842;2023-08-06T04:29:58;100941.59;;;23.95;44.41
14293;BME280;62290;59.420;17.842;2023-08-06T04:32:26;100945.00;;;23.98;44.55
14293;BME280;62290;59.420;17.842;2023-08-06T04:34:55;100939.47;;;23.99;44.72
14293;BME280;62290;59.420;17.842;2023-08-06T04:37:24;100934.47;;;23.94;44.72
14293;BME280;62290;59.420;17.842;2023-08-06T04:39:53;100939.34;;;24.01;44.60
14293;BME280;62290;59.420;17.842;2023-08-06T04:42:22;100947.44;;;24.01;44.98
14293;BME280;62290;59.420;17.842;2023-08-06T04:44:49;100946.44;;;24.02;45.00
14293;BME280;62290;59.420;17.842;2023-08-06T04:47:17;100941.03;;;24.02;45.02
14293;BME280;62290;59.420;17.842;2023-08-06T04:49:46;100952.66;;;24.02;45.28
14293;BME280;62290;59.420;17.842;2023-08-06T04:52:14;100954.50;;;24.02;45.31
14293;BME280;62290;59.420;17.842;2023-08-06T04:54:43;100924.53;;;23.85;45.54
14293;BME280;62290;59.420;17.842;2023-08-06T04:57:12;100956.06;;;24.04;45.72
14293;BME280;62290;59.420;17.842;2023-08-06T04:59:40;100949.97;;;24.02;45.77
14293;BME280;62290;59.420;17.842;2023-08-06T05:02:08;100938.34;;;24.02;45.94
14293;BME280;62290;59.420;17.842;2023-08-06T05:04:37;100937.13;;;24.06;46.17
14293;BME280;62290;59.420;17.842;2023-08-06T05:07:05;100938.09;;;24.05;46.12
14293;BME280;62290;59.420;17.842;2023-08-06T05:09:33;100935.41;;;24.05;46.25
14293;BME280;62290;59.420;17.842;2023-08-06T05:12:01;100947.66;;;24.09;46.15
14293;BME280;62290;59.420;17.842;2023-08-06T05:14:31;100943.84;;;24.11;46.24
14293;BME280;62290;59.420;17.842;2023-08-06T05:16:59;100954.63;;;24.11;46.24
14293;BME280;62290;59.420;17.842;2023-08-06T05:19:28;100956.31;;;24.12;46.12
14293;BME280;62290;59.420;17.842;2023-08-06T05:21:56;100946.41;;;24.13;46.38
14293;BME280;62290;59.420;17.842;2023-08-06T05:24:24;100943.72;;;24.13;46.31
14293;BME280;62290;59.420;17.842;2023-08-06T05:26:52;100949.44;;;24.19;46.03
14293;BME280;62290;59.420;17.842;2023-08-06T05:29:20;100951.00;;;24.22;46.41
14293;BME280;62290;59.420;17.842;2023-08-06T05:31:50;100945.34;;;24.25;46.02
14293;BME280;62290;59.420;17.842;2023-08-06T05:34:19;100938.81;;;24.27;46.26
14293;BME280;62290;59.420;17.842;2023-08-06T05:36:46;100941.25;;;24.30;46.46
14293;BME280;62290;59.420;17.842;2023-08-06T05:39:14;100926.81;;;24.31;46.38
14293;BME280;62290;59.420;17.842;2023-08-06T05:41:42;100931.09;;;24.34;46.43
14293;BME280;62290;59.420;17.842;2023-08-06T05:44:10;100931.69;;;24.37;46.44
14293;BME280;62290;59.420;17.842;2023-08-06T05:46:38;100930.69;;;24.38;46.21
14293;BME280;62290;59.420;17.842;2023-08-06T05:49:08;100940.22;;;24.42;46.26
14293;BME280;62290;59.420;17.842;2023-08-06T05:51:36;100935.66;;;24.43;46.20
14293;BME280;62290;59.420;17.842;2023-08-06T05:54:04;100938.09;;;24.46;46.35
14293;BME280;62290;59.420;17.842;2023-08-06T05:56:32;100940.50;;;24.49;46.19
14293;BME280;62290;59.420;17.842;2023-08-06T05:59:00;100939.53;;;24.50;45.90
14293;BME280;62290;59.420;17.842;2023-08-06T06:01:28;100927.03;;;24.49;45.94
14293;BME280;62290;59.420;17.842;2023-08-06T06:03:56;100933.03;;;24.52;45.92
14293;BME280;62290;59.420;17.842;2023-08-06T06:06:25;100927.63;;;24.52;46.06
14293;BME280;62290;59.420;17.842;2023-08-06T06:08:53;100923.22;;;24.51;45.86
14293;BME280;62290;59.420;17.842;2023-08-06T06:11:21;100933.03;;;24.52;46.00
14293;BME280;62290;59.420;17.842;2023-08-06T06:13:50;100929.47;;;24.52;45.79
14293;BME280;62290;59.420;17.842;2023-08-06T06:16:19;100931.47;;;24.50;45.93
14293;BME280;62290;59.420;17.842;2023-08-06T06:18:47;100923.38;;;24.50;45.82
14293;BME280;62290;59.420;17.842;2023-08-06T06:21:15;100923.38;;;24.50;45.82
14293;BME280;62290;59.420;17.842;2023-08-06T06:23:44;100920.69;;;24.50;46.09
14293;BME280;62290;59.420;17.842;2023-08-06T06:26:13;100922.50;;;24.49;46.05
14293;BME280;62290;59.420;17.842;2023-08-06T06:28:41;100918.97;;;24.49;45.84
14293;BME280;62290;59.420;17.842;2023-08-06T06:31:09;100911.03;;;24.47;46.05
14293;BME280;62290;59.420;17.842;2023-08-06T06:33:37;100909.31;;;24.46;46.26
14293;BME280;62290;59.420;17.842;2023-08-06T06:36:05;100919.09;;;24.47;46.14
14293;BME280;62290;59.420;17.842;2023-08-06T06:38:34;100917.28;;;24.48;46.29
14293;BME280;62290;59.420;17.842;2023-08-06T06:41:03;100913.56;;;24.49;46.04
14293;BME280;62290;59.420;17.842;2023-08-06T06:43:32;100870.97;;;24.33;46.34
14293;BME280;62290;59.420;17.842;2023-08-06T06:46:00;100885.66;;;24.50;46.28
14293;BME280;62290;59.420;17.842;2023-08-06T06:48:29;100888.34;;;24.50;46.49
14293;BME280;62290;59.420;17.842;2023-08-06T06:50:57;100882.97;;;24.50;46.25
14293;BME280;62290;59.420;17.842;2023-08-06T06:53:25;100879.41;;;24.49;46.25
14293;BME280;62290;59.420;17.842;2023-08-06T06:55:54;100883.94;;;24.49;46.30
14293;BME280;62290;59.420;17.842;2023-08-06T06:58:24;100874.88;;;24.50;46.49
14293;BME280;62290;59.420;17.842;2023-08-06T07:00:52;100885.78;;;24.48;46.36
14293;BME280;62290;59.420;17.842;2023-08-06T07:03:20;100886.63;;;24.49;46.30
14293;BME280;62290;59.420;17.842;2023-08-06T07:05:49;100885.78;;;24.48;46.49
14293;BME280;62290;59.420;17.842;2023-08-06T07:08:17;100880.53;;;24.47;46.82
14293;BME280;62290;59.420;17.842;2023-08-06T07:10:45;100872.44;;;24.47;46.56
14293;BME280;62290;59.420;17.842;2023-08-06T07:13:13;100875.00;;;24.48;46.93
14293;BME280;62290;59.420;17.842;2023-08-06T07:15:44;100869.59;;;24.48;46.82
14293;BME280;62290;59.420;17.842;2023-08-06T07:18:12;100873.31;;;24.47;46.72
14293;BME280;62290;59.420;17.842;2023-08-06T07:20:40;100875.84;;;24.49;46.84
14293;BME280;62290;59.420;17.842;2023-08-06T07:23:08;100883.81;;;24.50;46.39
14293;BME280;62290;59.420;17.842;2023-08-06T07:25:36;100885.50;;;24.51;46.79
14293;BME280;62290;59.420;17.842;2023-08-06T07:28:04;100885.50;;;24.51;46.39
14293;BME280;62290;59.420;17.842;2023-08-06T07:30:32;100875.59;;;24.52;46.75
14293;BME280;62290;59.420;17.842;2023-08-06T07:33:01;100886.38;;;24.52;46.61
14293;BME280;62290;59.420;17.842;2023-08-06T07:35:29;100881.94;;;24.51;46.58
14293;BME280;62290;59.420;17.842;2023-08-06T07:37:58;100878.28;;;24.52;46.60
14293;BME280;62290;59.420;17.842;2023-08-06T07:40:26;100882.81;;;24.51;46.52
14293;BME280;62290;59.420;17.842;2023-08-06T07:42:54;100876.56;;;24.51;46.86
14293;BME280;62290;59.420;17.842;2023-08-06T07:45:22;100873.88;;;24.51;46.57
14293;BME280;62290;59.420;17.842;2023-08-06T07:47:50;100878.44;;;24.50;46.83
14293;BME280;62290;59.420;17.842;2023-08-06T07:50:20;100879.25;;;24.51;46.88
14293;BME280;62290;59.420;17.842;2023-08-06T07:52:48;100875.00;;;24.48;46.74
14293;BME280;62290;59.420;17.842;2023-08-06T07:55:16;100870.47;;;24.49;47.00
14293;BME280;62290;59.420;17.842;2023-08-06T07:57:44;100875.00;;;24.48;46.89
14293;BME280;62290;59.420;17.842;2023-08-06T08:00:12;100870.47;;;24.49;46.76
14293;BME280;62290;59.420;17.842;2023-08-06T08:02:40;100869.59;;;24.48;46.69
14293;BME280;62290;59.420;17.842;2023-08-06T08:05:08;100864.22;;;24.48;46.62
14293;BME280;62290;59.420;17.842;2023-08-06T08:07:38;100873.16;;;24.49;46.66
14293;BME280;62290;59.420;17.842;2023-08-06T08:10:07;100867.78;;;24.49;46.76
14293;BME280;62290;59.420;17.842;2023-08-06T08:12:35;100865.34;;;24.46;46.69
14293;BME280;62290;59.420;17.842;2023-08-06T08:15:04;100874.88;;;24.50;46.61
14293;BME280;62290;59.420;17.842;2023-08-06T08:17:32;100873.03;;;24.50;46.49
14293;BME280;62290;59.420;17.842;2023-08-06T08:20:01;100875.59;;;24.52;46.23
14293;BME280;62290;59.420;17.842;2023-08-06T08:22:30;100875.31;;;24.55;46.46
14293;BME280;62290;59.420;17.842;2023-08-06T08:24:59;100883.41;;;24.55;45.98
14293;BME280;62290;59.420;17.842;2023-08-06T08:27:27;100870.78;;;24.55;46.06
14293;BME280;62290;59.420;17.842;2023-08-06T08:29:56;100876.03;;;24.57;46.17
14293;BME280;62290;59.420;17.842;2023-08-06T08:32:24;100877.88;;;24.56;46.04
14293;BME280;62290;59.420;17.842;2023-08-06T08:34:52;100877.75;;;24.58;45.98
14293;BME280;62290;59.420;17.842;2023-08-06T08:37:20;100883.00;;;24.60;45.70
14293;BME280;62290;59.420;17.842;2023-08-06T08:39:49;100889.34;;;24.58;46.09
14293;BME280;62290;59.420;17.842;2023-08-06T08:42:18;100890.94;;;24.61;45.55
14293;BME280;62290;59.420;17.842;2023-08-06T08:44:47;100901.84;;;24.60;45.94
14293;BME280;62290;59.420;17.842;2023-08-06T08:47:15;100898.28;;;24.59;46.00
14293;BME280;62290;59.420;17.842;2023-08-06T08:49:44;100892.91;;;24.59;45.64
14293;BME280;62290;59.420;17.842;2023-08-06T08:52:15;100891.22;;;24.58;45.85
14293;BME280;62290;59.420;17.842;2023-08-06T08:54:45;100881.28;;;24.58;45.85
14293;BME280;62290;59.420;17.842;2023-08-06T08:57:20;100870.50;;;24.58;45.67
14293;BME280;62290;59.420;17.842;2023-08-06T08:59:48;100864.28;;;24.58;45.00
14293;BME280;62290;59.420;17.842;2023-08-06T09:02:21;100869.66;;;24.58;45.27
14293;BME280;62290;59.420;17.842;2023-08-06T09:04:49;100868.66;;;24.59;45.02
14293;BME280;62290;59.420;17.842;2023-08-06T09:07:19;100862.41;;;24.58;44.65
14293;BME280;62290;59.420;17.842;2023-08-06T09:09:49;100864.28;;;24.58;44.51
14293;BME280;62290;59.420;17.842;2023-08-06T09:12:21;100857.16;;;24.57;44.48
14293;BME280;62290;59.420;17.842;2023-08-06T09:14:49;100858.03;;;24.58;44.63
14293;BME280;62290;59.420;17.842;2023-08-06T09:17:17;100852.63;;;24.58;44.18
14293;BME280;62290;59.420;17.842;2023-08-06T09:19:46;100841.28;;;24.54;44.12
14293;BME280;62290;59.420;17.842;2023-08-06T09:22:16;100831.34;;;24.54;43.98
14293;BME280;62290;59.420;17.842;2023-08-06T09:24:44;100840.13;;;24.56;44.02
14293;BME280;62290;59.420;17.842;2023-08-06T09:27:12;100821.56;;;24.53;43.72
14293;BME280;62290;59.420;17.842;2023-08-06T09:29:43;100822.28;;;24.55;43.94
14293;BME280;62290;59.420;17.842;2023-08-06T09:32:12;100801.69;;;24.45;43.86
14293;BME280;62290;59.420;17.842;2023-08-06T09:34:42;100809.78;;;24.54;43.64
14293;BME280;62290;59.420;17.842;2023-08-06T09:37:11;100807.09;;;24.54;43.70
14293;BME280;62290;59.420;17.842;2023-08-06T09:39:39;100804.41;;;24.54;43.08
14293;BME280;62290;59.420;17.842;2023-08-06T09:42:08;100794.91;;;24.50;43.47
14293;BME280;62290;59.420;17.842;2023-08-06T09:44:36;100784.84;;;24.52;43.32
14293;BME280;62290;59.420;17.842;2023-08-06T09:47:07;100783.00;;;24.53;43.31
14293;BME280;62290;59.420;17.842;2023-08-06T09:49:41;100774.91;;;24.53;43.15
14293;BME280;62290;59.420;17.842;2023-08-06T09:52:11;100773.22;;;24.52;43.13
14293;BME280;62290;59.420;17.842;2023-08-06T09:54:40;100763.41;;;24.51;43.21
14293;BME280;62290;59.420;17.842;2023-08-06T09:57:11;100752.50;;;24.52;43.08
14293;BME280;62290;59.420;17.842;2023-08-06T09:59:42;100751.50;;;24.53;42.86
14293;BME280;62290;59.420;17.842;2023-08-06T10:02:13;100747.13;;;24.52;43.40
14293;BME280;62290;59.420;17.842;2023-08-06T10:04:44;100737.19;;;24.53;43.24
14293;BME280;62290;59.420;17.842;2023-08-06T10:07:21;100727.25;;;24.53;43.28
14293;BME280;62290;59.420;17.842;2023-08-06T10:09:51;100724.72;;;24.52;43.49
14293;BME280;62290;59.420;17.842;2023-08-06T10:12:19;100707.97;;;24.48;43.47
14293;BME280;62290;59.420;17.842;2023-08-06T10:14:48;100713.94;;;24.52;43.21
14293;BME280;62290;59.420;17.842;2023-08-06T10:17:19;100713.94;;;24.52;43.51
14293;BME280;62290;59.420;17.842;2023-08-06T10:19:48;100709.53;;;24.51;43.33
14293;BME280;62290;59.420;17.842;2023-08-06T10:22:17;100710.25;;;24.53;43.61
14293;BME280;62290;59.420;17.842;2023-08-06T10:24:47;100696.06;;;24.51;43.27
14293;BME280;62290;59.420;17.842;2023-08-06T10:27:20;100694.22;;;24.51;43.30
14293;BME280;62290;59.420;17.842;2023-08-06T10:29:48;100693.34;;;24.51;43.44
14293;BME280;62290;59.420;17.842;2023-08-06T10:32:18;100683.59;;;24.50;43.58
14293;BME280;62290;59.420;17.842;2023-08-06T10:34:54;100671.09;;;24.49;43.64
14293;BME280;62290;59.420;17.842;2023-08-06T10:37:23;100674.66;;;24.49;43.56
14293;BME280;62290;59.420;17.842;2023-08-06T10:39:51;100669.41;;;24.48;43.33
14293;BME280;62290;59.420;17.842;2023-08-06T10:42:21;100659.03;;;24.43;43.88
14293;BME280;62290;59.420;17.842;2023-08-06T10:45:16;100662.47;;;24.45;43.79
14293;BME280;62290;59.420;17.842;2023-08-06T10:47:46;100661.03;;;24.41;43.73
14293;BME280;62290;59.420;17.842;2023-08-06T10:50:15;100649.28;;;24.42;43.86
14293;BME280;62290;59.420;17.842;2023-08-06T10:52:45;100644.88;;;24.41;44.28
14293;BME280;62290;59.420;17.842;2023-08-06T10:55:14;100645.84;;;24.40;44.29
14293;BME280;62290;59.420;17.842;2023-08-06T10:57:49;100647.72;;;24.40;44.26
14293;BME280;62290;59.420;17.842;2023-08-06T11:00:18;100655.06;;;24.38;44.50
14293;BME280;62290;59.420;17.842;2023-08-06T11:02:48;100657.91;;;24.36;44.76
14293;BME280;62290;59.420;17.842;2023-08-06T11:05:16;100657.75;;;24.38;44.70
14293;BME280;62290;59.420;17.842;2023-08-06T11:07:45;100663.28;;;24.36;44.77
14293;BME280;62290;59.420;17.842;2023-08-06T11:10:14;100666.84;;;24.37;44.78
14293;BME280;62290;59.420;17.842;2023-08-06T11:12:42;100679.47;;;24.36;45.00
14293;BME280;62290;59.420;17.842;2023-08-06T11:15:11;100683.13;;;24.35;45.25
14293;BME280;62290;59.420;17.842;2023-08-06T11:17:40;100696.59;;;24.35;45.18
14293;BME280;62290;59.420;17.842;2023-08-06T11:20:10;100684.41;;;24.31;45.52
14293;BME280;62290;59.420;17.842;2023-08-06T11:22:41;100691.22;;;24.35;45.79
14293;BME280;62290;59.420;17.842;2023-08-06T11:25:09;100693.91;;;24.35;45.70
14293;BME280;62290;59.420;17.842;2023-08-06T11:27:37;100693.91;;;24.35;45.73
14293;BME280;62290;59.420;17.842;2023-08-06T11:30:06;100692.22;;;24.34;46.31
14293;BME280;62290;59.420;17.842;2023-08-06T11:32:44;100673.22;;;24.36;46.35
14293;BME280;62290;59.420;17.842;2023-08-06T11:35:15;100658.63;;;24.29;46.37
14293;BME280;62290;59.420;17.842;2023-08-06T11:37:44;100691.38;;;24.34;46.58
14293;BME280;62290;59.420;17.842;2023-08-06T11:40:15;100703.97;;;24.33;46.84
14293;BME280;62290;59.420;17.842;2023-08-06T11:42:43;100706.81;;;24.32;46.68
14293;BME280;62290;59.420;17.842;2023-08-06T11:45:11;100705.81;;;24.33;47.07
14293;BME280;62290;59.420;17.842;2023-08-06T11:47:39;100707.69;;;24.32;47.25
14293;BME280;62290;59.420;17.842;2023-08-06T11:50:08;100694.22;;;24.32;47.48
14293;BME280;62290;59.420;17.842;2023-08-06T11:52:39;100692.34;;;24.33;47.43
14293;BME280;62290;59.420;17.842;2023-08-06T11:55:09;100695.03;;;24.33;47.88
14293;BME280;62290;59.420;17.842;2023-08-06T11:57:38;100682.69;;;24.30;48.11
14293;BME280;62290;59.420;17.842;2023-08-06T12:00:09;100693.34;;;24.32;48.41
14293;BME280;62290;59.420;17.842;2023-08-06T12:02:43;100693.19;;;24.33;48.18
14293;BME280;62290;59.420;17.842;2023-08-06T12:05:13;100696.91;;;24.32;48.32
14293;BME280;62290;59.420;17.842;2023-08-06T12:07:44;100687.97;;;24.32;48.51
14293;BME280;62290;59.420;17.842;2023-08-06T12:10:13;100680.88;;;24.31;48.75
14293;BME280;62290;59.420;17.842;2023-08-06T12:12:41;100673.22;;;24.26;48.62
14293;BME280;62290;59.420;17.842;2023-08-06T12:15:10;100676.50;;;24.30;48.80
14293;BME280;62290;59.420;17.842;2023-08-06T12:17:38;100675.75;;;24.28;49.16
14293;BME280;62290;59.420;17.842;2023-08-06T12:20:07;100671.50;;;24.25;49.03
14293;BME280;62290;59.420;17.842;2023-08-06T12:22:35;100664.28;;;24.26;49.27
14293;BME280;62290;59.420;17.842;2023-08-06T12:25:08;100666.00;;;24.27;49.22
14293;BME280;62290;59.420;17.842;2023-08-06T12:27:39;100653.50;;;24.26;49.16
14293;BME280;62290;59.420;17.842;2023-08-06T12:30:08;100644.00;;;24.22;49.44
14293;BME280;62290;59.420;17.842;2023-08-06T12:32:36;100652.78;;;24.24;49.78
14293;BME280;62290;59.420;17.842;2023-08-06T12:35:06;100646.81;;;24.20;49.77
14293;BME280;62290;59.420;17.842;2023-08-06T12:37:35;100644.72;;;24.24;49.92
14293;BME280;62290;59.420;17.842;2023-08-06T12:40:07;100643.88;;;24.23;49.66
14293;BME280;62290;59.420;17.842;2023-08-06T12:42:55;100647.69;;;24.21;49.89
14293;BME280;62290;59.420;17.842;2023-08-06T12:45:23;100652.09;;;24.22;50.02
14293;BME280;62290;59.420;17.842;2023-08-06T12:47:51;100631.94;;;24.16;50.23
14293;BME280;62290;59.420;17.842;2023-08-06T12:50:19;100635.19;;;24.20;50.21